sensor_id;sensor_type;location;lat;lon;timestamp;P1;durP1;ratioP1;P2;durP2;ratioP2
583;SDS011;27024;54.068;12.116;2023-04-04T00:00:19;3.50;;;1.60;;
583;SDS011;27024;54.068;12.116;2023-04-04T00:02:47;5.80;;;1.70;;
583;SDS011;27024;54.068;12.116;2023-04-04T00:05:14;4.30;;;1.60;;
583;SDS011;27024;54.068;12.116;2023-04-04T00:07:41;3.38;;;1.48;;
583;SDS011;27024;54.068;12.116;2023-04-04T00:10:12;6.10;;;1.60;;
583;SDS011;27024;54.068;12.116;2023-04-04T00:12:40;5.72;;;1.95;;
583;SDS011;27024;54.068;12.116;2023-04-04T00:15:08;4.68;;;1.48;;
583;SDS011;27024;54.068;12.116;2023-04-04T00:17:35;4.47;;;1.83;;
583;SDS011;27024;54.068;12.116;2023-04-04T00:20:02;6.38;;;1.50;;
583;SDS011;27024;54.068;12.116;2023-04-04T00:22:29;3.28;;;1.27;;
583;SDS011;27024;54.068;12.116;2023-04-04T00:24:57;4.30;;;1.30;;
583;SDS011;27024;54.068;12.116;2023-04-04T00:27:24;4.07;;;1.30;;
583;SDS011;27024;54.068;12.116;2023-04-04T00:29:51;4.40;;;1.35;;
583;SDS011;27024;54.068;12.116;2023-04-04T00:32:18;5.72;;;1.52;;
583;SDS011;27024;54.068;12.116;2023-04-04T00:34:45;7.53;;;1.83;;
583;SDS011;27024;54.068;12.116;2023-04-04T00:37:17;3.80;;;1.05;;
583;SDS011;27024;54.068;12.116;2023-04-04T00:39:43;8.10;;;1.50;;
583;SDS011;27024;54.068;12.116;2023-04-04T00:42:10;6.25;;;1.35;;
583;SDS011;27024;54.068;12.116;2023-04-04T00:44:37;5.40;;;1.70;;
583;SDS011;27024;54.068;12.116;2023-04-04T00:47:04;3.47;;;1.30;;
583;SDS011;27024;54.068;12.116;2023-04-04T00:49:31;4.28;;;1.58;;
583;SDS011;27024;54.068;12.116;2023-04-04T00:51:59;4.32;;;1.55;;
583;SDS011;27024;54.068;12.116;2023-04-04T00:54:25;5.30;;;1.25;;
583;SDS011;27024;54.068;12.116;2023-04-04T00:56:52;4.15;;;1.35;;
583;SDS011;27024;54.068;12.116;2023-04-04T00:59:21;6.00;;;1.60;;
583;SDS011;27024;54.068;12.116;2023-04-04T01:01:49;3.30;;;1.17;;
583;SDS011;27024;54.068;12.116;2023-04-04T01:04:16;5.00;;;2.10;;
583;SDS011;27024;54.068;12.116;2023-04-04T01:06:44;3.40;;;1.20;;
583;SDS011;27024;54.068;12.116;2023-04-04T01:09:11;5.13;;;1.25;;
583;SDS011;27024;54.068;12.116;2023-04-04T01:11:38;5.53;;;1.67;;
583;SDS011;27024;54.068;12.116;2023-04-04T01:14:06;5.32;;;1.23;;
583;SDS011;27024;54.068;12.116;2023-04-04T01:16:33;4.93;;;1.27;;
583;SDS011;27024;54.068;12.116;2023-04-04T01:19:01;3.05;;;1.08;;
583;SDS011;27024;54.068;12.116;2023-04-04T01:21:32;4.30;;;1.25;;
583;SDS011;27024;54.068;12.116;2023-04-04T01:24:00;3.67;;;1.00;;
583;SDS011;27024;54.068;12.116;2023-04-04T01:26:29;3.80;;;0.88;;
583;SDS011;27024;54.068;12.116;2023-04-04T01:28:57;4.28;;;0.90;;
583;SDS011;27024;54.068;12.116;2023-04-04T01:34:09;6.95;;;1.20;;
583;SDS011;27024;54.068;12.116;2023-04-04T01:42:01;3.63;;;0.98;;
583;SDS011;27024;54.068;12.116;2023-04-04T01:44:28;3.95;;;0.98;;
583;SDS011;27024;54.068;12.116;2023-04-04T01:46:55;3.08;;;1.02;;
583;SDS011;27024;54.068;12.116;2023-04-04T01:49:22;7.53;;;1.00;;
583;SDS011;27024;54.068;12.116;2023-04-04T01:51:50;4.32;;;1.30;;
583;SDS011;27024;54.068;12.116;2023-04-04T01:54:18;5.15;;;1.10;;
583;SDS011;27024;54.068;12.116;2023-04-04T01:56:44;6.03;;;1.13;;
583;SDS011;27024;54.068;12.116;2023-04-04T01:59:11;4.53;;;1.33;;
583;SDS011;27024;54.068;12.116;2023-04-04T02:01:38;3.67;;;1.33;;
583;SDS011;27024;54.068;12.116;2023-04-04T02:04:05;5.78;;;1.50;;
583;SDS011;27024;54.068;12.116;2023-04-04T02:06:32;5.88;;;1.48;;
583;SDS011;27024;54.068;12.116;2023-04-04T02:09:00;8.18;;;1.88;;
583;SDS011;27024;54.068;12.116;2023-04-04T02:11:26;3.63;;;1.15;;
583;SDS011;27024;54.068;12.116;2023-04-04T02:13:53;5.22;;;1.20;;
583;SDS011;27024;54.068;12.116;2023-04-04T02:16:20;3.28;;;1.00;;
583;SDS011;27024;54.068;12.116;2023-04-04T02:18:47;5.43;;;1.33;;
583;SDS011;27024;54.068;12.116;2023-04-04T02:21:14;6.35;;;1.60;;
583;SDS011;27024;54.068;12.116;2023-04-04T02:23:40;8.90;;;1.23;;
583;SDS011;27024;54.068;12.116;2023-04-04T02:26:07;5.68;;;1.20;;
583;SDS011;27024;54.068;12.116;2023-04-04T02:28:34;5.88;;;1.23;;
583;SDS011;27024;54.068;12.116;2023-04-04T02:31:01;3.75;;;1.15;;
583;SDS011;27024;54.068;12.116;2023-04-04T02:33:28;4.60;;;1.48;;
583;SDS011;27024;54.068;12.116;2023-04-04T02:35:56;4.55;;;1.17;;
583;SDS011;27024;54.068;12.116;2023-04-04T02:38:24;5.20;;;1.50;;
583;SDS011;27024;54.068;12.116;2023-04-04T02:40:51;4.25;;;1.42;;
583;SDS011;27024;54.068;12.116;2023-04-04T02:43:18;5.57;;;1.85;;
583;SDS011;27024;54.068;12.116;2023-04-04T02:45:48;6.25;;;1.52;;
583;SDS011;27024;54.068;12.116;2023-04-04T02:48:15;6.75;;;1.90;;
583;SDS011;27024;54.068;12.116;2023-04-04T02:50:42;5.13;;;2.13;;
583;SDS011;27024;54.068;12.116;2023-04-04T02:53:09;5.38;;;2.05;;
583;SDS011;27024;54.068;12.116;2023-04-04T02:55:36;8.63;;;1.60;;
583;SDS011;27024;54.068;12.116;2023-04-04T02:58:03;6.70;;;2.05;;
583;SDS011;27024;54.068;12.116;2023-04-04T03:00:30;5.38;;;1.60;;
583;SDS011;27024;54.068;12.116;2023-04-04T03:02:56;6.38;;;1.75;;
583;SDS011;27024;54.068;12.116;2023-04-04T03:05:24;6.68;;;1.65;;
583;SDS011;27024;54.068;12.116;2023-04-04T03:07:55;6.13;;;2.00;;
583;SDS011;27024;54.068;12.116;2023-04-04T03:10:23;8.25;;;1.85;;
583;SDS011;27024;54.068;12.116;2023-04-04T03:12:52;5.32;;;1.90;;
583;SDS011;27024;54.068;12.116;2023-04-04T03:15:19;6.50;;;1.85;;
583;SDS011;27024;54.068;12.116;2023-04-04T03:17:46;4.72;;;1.30;;
583;SDS011;27024;54.068;12.116;2023-04-04T03:20:14;5.38;;;2.10;;
583;SDS011;27024;54.068;12.116;2023-04-04T03:22:41;7.13;;;1.75;;
583;SDS011;27024;54.068;12.116;2023-04-04T03:25:08;5.00;;;1.50;;
583;SDS011;27024;54.068;12.116;2023-04-04T03:27:35;4.25;;;1.60;;
583;SDS011;27024;54.068;12.116;2023-04-04T03:30:02;3.58;;;1.55;;
583;SDS011;27024;54.068;12.116;2023-04-04T03:32:30;5.18;;;2.00;;
583;SDS011;27024;54.068;12.116;2023-04-04T03:34:57;6.63;;;2.42;;
583;SDS011;27024;54.068;12.116;2023-04-04T03:37:24;8.27;;;2.58;;
583;SDS011;27024;54.068;12.116;2023-04-04T03:39:51;6.72;;;2.42;;
583;SDS011;27024;54.068;12.116;2023-04-04T03:42:18;4.63;;;2.10;;
583;SDS011;27024;54.068;12.116;2023-04-04T03:44:44;7.60;;;2.20;;
583;SDS011;27024;54.068;12.116;2023-04-04T03:47:12;5.38;;;1.92;;
583;SDS011;27024;54.068;12.116;2023-04-04T03:49:39;10.43;;;2.63;;
583;SDS011;27024;54.068;12.116;2023-04-04T03:52:06;6.97;;;2.08;;
583;SDS011;27024;54.068;12.116;2023-04-04T03:54:33;5.65;;;2.10;;
583;SDS011;27024;54.068;12.116;2023-04-04T03:57:00;7.00;;;2.03;;
583;SDS011;27024;54.068;12.116;2023-04-04T03:59:27;6.22;;;1.90;;
583;SDS011;27024;54.068;12.116;2023-04-04T04:01:54;4.82;;;2.20;;
583;SDS011;27024;54.068;12.116;2023-04-04T04:04:21;4.63;;;1.83;;
583;SDS011;27024;54.068;12.116;2023-04-04T04:06:48;5.28;;;2.00;;
583;SDS011;27024;54.068;12.116;2023-04-04T04:09:15;4.43;;;1.70;;
583;SDS011;27024;54.068;12.116;2023-04-04T04:11:42;5.07;;;1.63;;
583;SDS011;27024;54.068;12.116;2023-04-04T04:14:09;5.85;;;1.45;;
583;SDS011;27024;54.068;12.116;2023-04-04T04:16:38;6.47;;;1.90;;
583;SDS011;27024;54.068;12.116;2023-04-04T04:19:05;6.75;;;1.98;;
583;SDS011;27024;54.068;12.116;2023-04-04T04:21:32;3.97;;;1.77;;
583;SDS011;27024;54.068;12.116;2023-04-04T04:23:58;4.72;;;1.98;;
583;SDS011;27024;54.068;12.116;2023-04-04T04:26:25;4.53;;;1.73;;
583;SDS011;27024;54.068;12.116;2023-04-04T04:28:52;4.47;;;1.80;;
583;SDS011;27024;54.068;12.116;2023-04-04T04:31:19;5.43;;;1.60;;
583;SDS011;27024;54.068;12.116;2023-04-04T04:33:46;6.00;;;1.80;;
583;SDS011;27024;54.068;12.116;2023-04-04T04:36:14;6.25;;;1.48;;
583;SDS011;27024;54.068;12.116;2023-04-04T04:38:41;5.13;;;1.77;;
583;SDS011;27024;54.068;12.116;2023-04-04T04:41:08;5.05;;;1.65;;
583;SDS011;27024;54.068;12.116;2023-04-04T04:43:34;4.93;;;1.90;;
583;SDS011;27024;54.068;12.116;2023-04-04T04:46:02;5.93;;;2.15;;
583;SDS011;27024;54.068;12.116;2023-04-04T04:48:29;4.68;;;1.77;;
583;SDS011;27024;54.068;12.116;2023-04-04T04:50:56;8.70;;;2.08;;
583;SDS011;27024;54.068;12.116;2023-04-04T04:53:22;5.85;;;1.27;;
583;SDS011;27024;54.068;12.116;2023-04-04T04:55:49;4.50;;;1.35;;
583;SDS011;27024;54.068;12.116;2023-04-04T04:58:17;6.57;;;1.40;;
583;SDS011;27024;54.068;12.116;2023-04-04T05:00:47;4.88;;;1.60;;
583;SDS011;27024;54.068;12.116;2023-04-04T05:03:14;5.13;;;1.83;;
583;SDS011;27024;54.068;12.116;2023-04-04T05:05:41;8.70;;;2.00;;
583;SDS011;27024;54.068;12.116;2023-04-04T05:08:09;5.88;;;1.30;;
583;SDS011;27024;54.068;12.116;2023-04-04T05:10:36;8.48;;;1.35;;
583;SDS011;27024;54.068;12.116;2023-04-04T05:13:03;3.65;;;1.45;;
583;SDS011;27024;54.068;12.116;2023-04-04T05:15:30;3.22;;;1.17;;
583;SDS011;27024;54.068;12.116;2023-04-04T05:17:57;3.40;;;1.20;;
583;SDS011;27024;54.068;12.116;2023-04-04T05:20:24;6.25;;;1.60;;
583;SDS011;27024;54.068;12.116;2023-04-04T05:22:51;6.82;;;1.58;;
583;SDS011;27024;54.068;12.116;2023-04-04T05:25:18;4.07;;;1.13;;
583;SDS011;27024;54.068;12.116;2023-04-04T05:27:45;4.88;;;1.30;;
583;SDS011;27024;54.068;12.116;2023-04-04T05:30:14;3.83;;;1.00;;
583;SDS011;27024;54.068;12.116;2023-04-04T05:32:42;5.35;;;1.50;;
583;SDS011;27024;54.068;12.116;2023-04-04T05:35:10;4.22;;;1.40;;
583;SDS011;27024;54.068;12.116;2023-04-04T05:37:38;6.68;;;2.03;;
583;SDS011;27024;54.068;12.116;2023-04-04T05:40:06;7.15;;;1.55;;
583;SDS011;27024;54.068;12.116;2023-04-04T05:42:33;5.43;;;1.30;;
583;SDS011;27024;54.068;12.116;2023-04-04T05:45:00;6.22;;;1.60;;
583;SDS011;27024;54.068;12.116;2023-04-04T05:47:27;4.85;;;1.02;;
583;SDS011;27024;54.068;12.116;2023-04-04T05:49:54;3.85;;;1.33;;
583;SDS011;27024;54.068;12.116;2023-04-04T05:52:21;4.93;;;1.52;;
583;SDS011;27024;54.068;12.116;2023-04-04T05:54:48;5.75;;;1.23;;
583;SDS011;27024;54.068;12.116;2023-04-04T05:57:14;3.63;;;1.00;;
583;SDS011;27024;54.068;12.116;2023-04-04T05:59:41;7.63;;;1.25;;
583;SDS011;27024;54.068;12.116;2023-04-04T06:02:08;4.28;;;1.30;;
583;SDS011;27024;54.068;12.116;2023-04-04T06:04:35;4.35;;;1.17;;
583;SDS011;27024;54.068;12.116;2023-04-04T06:07:02;3.95;;;1.13;;
583;SDS011;27024;54.068;12.116;2023-04-04T06:09:29;3.15;;;1.33;;
583;SDS011;27024;54.068;12.116;2023-04-04T06:11:56;9.77;;;1.52;;
583;SDS011;27024;54.068;12.116;2023-04-04T06:14:23;7.05;;;1.38;;
583;SDS011;27024;54.068;12.116;2023-04-04T06:16:49;8.55;;;1.85;;
583;SDS011;27024;54.068;12.116;2023-04-04T06:19:16;10.68;;;2.10;;
583;SDS011;27024;54.068;12.116;2023-04-04T06:21:46;8.50;;;1.92;;
583;SDS011;27024;54.068;12.116;2023-04-04T06:24:13;10.25;;;2.10;;
583;SDS011;27024;54.068;12.116;2023-04-04T06:26:40;5.85;;;1.88;;
583;SDS011;27024;54.068;12.116;2023-04-04T06:29:08;7.47;;;1.83;;
583;SDS011;27024;54.068;12.116;2023-04-04T06:31:34;5.15;;;1.65;;
583;SDS011;27024;54.068;12.116;2023-04-04T06:34:01;5.78;;;1.50;;
583;SDS011;27024;54.068;12.116;2023-04-04T06:36:28;3.70;;;1.10;;
583;SDS011;27024;54.068;12.116;2023-04-04T06:38:55;5.20;;;1.27;;
583;SDS011;27024;54.068;12.116;2023-04-04T06:41:22;3.78;;;1.00;;
583;SDS011;27024;54.068;12.116;2023-04-04T06:43:49;4.60;;;0.90;;
583;SDS011;27024;54.068;12.116;2023-04-04T06:46:15;5.97;;;0.95;;
583;SDS011;27024;54.068;12.116;2023-04-04T06:48:42;4.57;;;0.95;;
583;SDS011;27024;54.068;12.116;2023-04-04T06:51:10;3.35;;;0.80;;
583;SDS011;27024;54.068;12.116;2023-04-04T06:53:37;4.45;;;0.98;;
583;SDS011;27024;54.068;12.116;2023-04-04T06:56:04;3.47;;;1.08;;
583;SDS011;27024;54.068;12.116;2023-04-04T06:58:31;4.55;;;0.80;;
583;SDS011;27024;54.068;12.116;2023-04-04T07:00:58;3.83;;;0.93;;
583;SDS011;27024;54.068;12.116;2023-04-04T07:03:25;4.15;;;0.98;;
583;SDS011;27024;54.068;12.116;2023-04-04T07:05:52;4.18;;;0.82;;
583;SDS011;27024;54.068;12.116;2023-04-04T07:08:19;4.95;;;0.93;;
583;SDS011;27024;54.068;12.116;2023-04-04T07:10:46;4.18;;;1.10;;
583;SDS011;27024;54.068;12.116;2023-04-04T07:13:13;5.55;;;1.08;;
583;SDS011;27024;54.068;12.116;2023-04-04T07:15:40;3.13;;;0.65;;
583;SDS011;27024;54.068;12.116;2023-04-04T07:18:14;3.03;;;0.95;;
583;SDS011;27024;54.068;12.116;2023-04-04T07:20:41;4.28;;;0.70;;
583;SDS011;27024;54.068;12.116;2023-04-04T07:23:09;3.75;;;0.73;;
583;SDS011;27024;54.068;12.116;2023-04-04T07:25:37;2.78;;;0.60;;
583;SDS011;27024;54.068;12.116;2023-04-04T07:28:04;2.45;;;0.63;;
583;SDS011;27024;54.068;12.116;2023-04-04T07:30:38;5.55;;;1.02;;
583;SDS011;27024;54.068;12.116;2023-04-04T07:33:05;4.95;;;0.93;;
583;SDS011;27024;54.068;12.116;2023-04-04T07:35:33;4.63;;;1.20;;
583;SDS011;27024;54.068;12.116;2023-04-04T07:38:00;3.05;;;0.82;;
583;SDS011;27024;54.068;12.116;2023-04-04T07:40:28;4.93;;;1.00;;
583;SDS011;27024;54.068;12.116;2023-04-04T07:42:56;2.83;;;0.75;;
583;SDS011;27024;54.068;12.116;2023-04-04T07:45:22;3.88;;;0.68;;
583;SDS011;27024;54.068;12.116;2023-04-04T07:47:49;3.70;;;0.90;;
583;SDS011;27024;54.068;12.116;2023-04-04T07:50:17;3.17;;;0.68;;
583;SDS011;27024;54.068;12.116;2023-04-04T07:52:48;2.38;;;0.90;;
583;SDS011;27024;54.068;12.116;2023-04-04T07:55:17;2.33;;;0.73;;
583;SDS011;27024;54.068;12.116;2023-04-04T07:57:45;2.47;;;1.02;;
583;SDS011;27024;54.068;12.116;2023-04-04T08:00:12;6.10;;;0.90;;
583;SDS011;27024;54.068;12.116;2023-04-04T08:02:41;2.42;;;0.80;;
583;SDS011;27024;54.068;12.116;2023-04-04T08:05:08;2.90;;;0.75;;
583;SDS011;27024;54.068;12.116;2023-04-04T08:07:36;2.42;;;0.60;;
583;SDS011;27024;54.068;12.116;2023-04-04T08:10:02;3.53;;;0.40;;
583;SDS011;27024;54.068;12.116;2023-04-04T08:12:29;2.45;;;0.43;;
583;SDS011;27024;54.068;12.116;2023-04-04T08:14:56;3.30;;;0.45;;
583;SDS011;27024;54.068;12.116;2023-04-04T08:17:23;2.83;;;0.40;;
583;SDS011;27024;54.068;12.116;2023-04-04T08:19:50;1.50;;;0.32;;
583;SDS011;27024;54.068;12.116;2023-04-04T08:22:17;2.65;;;0.30;;
583;SDS011;27024;54.068;12.116;2023-04-04T08:24:45;2.53;;;0.40;;
583;SDS011;27024;54.068;12.116;2023-04-04T08:27:12;1.50;;;0.55;;
583;SDS011;27024;54.068;12.116;2023-04-04T08:29:41;2.45;;;0.43;;
583;SDS011;27024;54.068;12.116;2023-04-04T08:32:08;0.77;;;0.43;;
583;SDS011;27024;54.068;12.116;2023-04-04T08:34:37;1.80;;;0.38;;
583;SDS011;27024;54.068;12.116;2023-04-04T08:37:05;2.65;;;0.43;;
583;SDS011;27024;54.068;12.116;2023-04-04T08:39:32;0.90;;;0.30;;
583;SDS011;27024;54.068;12.116;2023-04-04T08:42:01;2.63;;;0.40;;
583;SDS011;27024;54.068;12.116;2023-04-04T08:44:31;1.83;;;0.43;;
583;SDS011;27024;54.068;12.116;2023-04-04T08:46:59;1.50;;;0.50;;
583;SDS011;27024;54.068;12.116;2023-04-04T08:49:31;1.83;;;0.30;;
583;SDS011;27024;54.068;12.116;2023-04-04T08:52:02;3.28;;;0.43;;
583;SDS011;27024;54.068;12.116;2023-04-04T08:54:32;1.40;;;0.60;;
583;SDS011;27024;54.068;12.116;2023-04-04T08:57:01;1.75;;;0.30;;
583;SDS011;27024;54.068;12.116;2023-04-04T08:59:29;3.30;;;0.43;;
583;SDS011;27024;54.068;12.116;2023-04-04T09:02:03;2.33;;;0.52;;
583;SDS011;27024;54.068;12.116;2023-04-04T09:04:44;1.30;;;0.50;;
583;SDS011;27024;54.068;12.116;2023-04-04T09:07:28;1.85;;;0.60;;
583;SDS011;27024;54.068;12.116;2023-04-04T09:09:56;2.28;;;0.50;;
583;SDS011;27024;54.068;12.116;2023-04-04T09:12:23;2.22;;;0.35;;
583;SDS011;27024;54.068;12.116;2023-04-04T09:14:51;3.67;;;0.60;;
583;SDS011;27024;54.068;12.116;2023-04-04T09:17:19;2.35;;;0.40;;
583;SDS011;27024;54.068;12.116;2023-04-04T09:19:46;2.75;;;0.40;;
583;SDS011;27024;54.068;12.116;2023-04-04T09:22:14;2.17;;;0.50;;
583;SDS011;27024;54.068;12.116;2023-04-04T09:24:42;1.15;;;0.32;;
583;SDS011;27024;54.068;12.116;2023-04-04T09:27:09;2.47;;;0.50;;
583;SDS011;27024;54.068;12.116;2023-04-04T09:29:37;2.75;;;0.57;;
583;SDS011;27024;54.068;12.116;2023-04-04T09:32:08;2.05;;;0.50;;
583;SDS011;27024;54.068;12.116;2023-04-04T09:34:43;1.98;;;0.40;;
583;SDS011;27024;54.068;12.116;2023-04-04T09:37:13;2.10;;;0.40;;
583;SDS011;27024;54.068;12.116;2023-04-04T09:39:43;3.63;;;0.60;;
583;SDS011;27024;54.068;12.116;2023-04-04T09:42:10;1.98;;;0.60;;
583;SDS011;27024;54.068;12.116;2023-04-04T09:44:37;2.03;;;0.63;;
583;SDS011;27024;54.068;12.116;2023-04-04T09:47:05;2.10;;;0.50;;
583;SDS011;27024;54.068;12.116;2023-04-04T09:49:57;2.35;;;0.40;;
583;SDS011;27024;54.068;12.116;2023-04-04T09:52:25;2.67;;;0.50;;
583;SDS011;27024;54.068;12.116;2023-04-04T09:54:55;4.22;;;0.65;;
583;SDS011;27024;54.068;12.116;2023-04-04T09:57:27;2.92;;;0.80;;
583;SDS011;27024;54.068;12.116;2023-04-04T10:00:02;3.45;;;0.63;;
583;SDS011;27024;54.068;12.116;2023-04-04T10:02:35;2.53;;;0.90;;
583;SDS011;27024;54.068;12.116;2023-04-04T10:05:04;2.67;;;0.68;;
583;SDS011;27024;54.068;12.116;2023-04-04T10:07:32;2.95;;;0.50;;
583;SDS011;27024;54.068;12.116;2023-04-04T10:10:07;4.10;;;1.10;;
583;SDS011;27024;54.068;12.116;2023-04-04T10:12:37;2.95;;;0.90;;
583;SDS011;27024;54.068;12.116;2023-04-04T10:15:04;2.13;;;0.75;;
583;SDS011;27024;54.068;12.116;2023-04-04T10:17:38;1.73;;;0.40;;
583;SDS011;27024;54.068;12.116;2023-04-04T10:20:07;2.92;;;0.70;;
583;SDS011;27024;54.068;12.116;2023-04-04T10:22:35;1.65;;;0.60;;
583;SDS011;27024;54.068;12.116;2023-04-04T10:25:03;3.60;;;1.02;;
583;SDS011;27024;54.068;12.116;2023-04-04T10:27:31;3.33;;;0.90;;
583;SDS011;27024;54.068;12.116;2023-04-04T10:29:59;2.60;;;0.77;;
583;SDS011;27024;54.068;12.116;2023-04-04T10:32:27;4.65;;;1.15;;
583;SDS011;27024;54.068;12.116;2023-04-04T10:37:31;3.70;;;1.10;;
583;SDS011;27024;54.068;12.116;2023-04-04T10:40:15;3.33;;;0.82;;
583;SDS011;27024;54.068;12.116;2023-04-04T10:42:45;3.63;;;1.20;;
583;SDS011;27024;54.068;12.116;2023-04-04T10:45:13;3.75;;;1.55;;
583;SDS011;27024;54.068;12.116;2023-04-04T10:47:47;6.03;;;0.88;;
583;SDS011;27024;54.068;12.116;2023-04-04T10:50:14;2.97;;;0.80;;
583;SDS011;27024;54.068;12.116;2023-04-04T10:52:43;3.72;;;0.90;;
583;SDS011;27024;54.068;12.116;2023-04-04T10:55:12;5.18;;;1.02;;
583;SDS011;27024;54.068;12.116;2023-04-04T10:57:45;3.53;;;1.02;;
583;SDS011;27024;54.068;12.116;2023-04-04T11:00:17;2.85;;;1.00;;
583;SDS011;27024;54.068;12.116;2023-04-04T11:05:23;3.38;;;0.98;;
583;SDS011;27024;54.068;12.116;2023-04-04T11:08:00;5.03;;;1.13;;
583;SDS011;27024;54.068;12.116;2023-04-04T11:10:39;3.97;;;1.20;;
583;SDS011;27024;54.068;12.116;2023-04-04T11:13:09;3.88;;;1.23;;
583;SDS011;27024;54.068;12.116;2023-04-04T11:15:50;3.53;;;1.17;;
583;SDS011;27024;54.068;12.116;2023-04-04T11:19:06;4.25;;;1.40;;
583;SDS011;27024;54.068;12.116;2023-04-04T11:21:18;3.55;;;1.08;;
583;SDS011;27024;54.068;12.116;2023-04-04T11:28:56;4.97;;;1.10;;
583;SDS011;27024;54.068;12.116;2023-04-04T11:31:28;5.78;;;1.17;;
583;SDS011;27024;54.068;12.116;2023-04-04T11:44:18;4.50;;;1.73;;
583;SDS011;27024;54.068;12.116;2023-04-04T11:46:46;4.40;;;1.33;;
583;SDS011;27024;54.068;12.116;2023-04-04T11:49:16;5.50;;;1.45;;
583;SDS011;27024;54.068;12.116;2023-04-04T11:51:44;3.70;;;1.30;;
583;SDS011;27024;54.068;12.116;2023-04-04T11:54:17;6.93;;;1.45;;
583;SDS011;27024;54.068;12.116;2023-04-04T11:56:44;5.90;;;1.48;;
583;SDS011;27024;54.068;12.116;2023-04-04T11:59:11;4.60;;;1.60;;
583;SDS011;27024;54.068;12.116;2023-04-04T12:01:39;6.00;;;1.70;;
583;SDS011;27024;54.068;12.116;2023-04-04T12:04:06;5.07;;;1.40;;
583;SDS011;27024;54.068;12.116;2023-04-04T12:06:34;4.88;;;1.50;;
583;SDS011;27024;54.068;12.116;2023-04-04T12:09:03;6.82;;;2.22;;
583;SDS011;27024;54.068;12.116;2023-04-04T12:11:32;3.85;;;1.35;;
583;SDS011;27024;54.068;12.116;2023-04-04T12:14:00;4.57;;;1.90;;
583;SDS011;27024;54.068;12.116;2023-04-04T12:16:27;5.35;;;2.10;;
583;SDS011;27024;54.068;12.116;2023-04-04T12:18:55;3.17;;;1.00;;
583;SDS011;27024;54.068;12.116;2023-04-04T12:23:52;4.68;;;1.55;;
583;SDS011;27024;54.068;12.116;2023-04-04T12:26:21;3.05;;;1.23;;
583;SDS011;27024;54.068;12.116;2023-04-04T12:28:48;5.15;;;2.38;;
583;SDS011;27024;54.068;12.116;2023-04-04T12:31:16;4.18;;;1.52;;
583;SDS011;27024;54.068;12.116;2023-04-04T12:33:42;5.28;;;1.98;;
583;SDS011;27024;54.068;12.116;2023-04-04T12:36:09;5.68;;;1.13;;
583;SDS011;27024;54.068;12.116;2023-04-04T12:41:23;5.13;;;2.15;;
583;SDS011;27024;54.068;12.116;2023-04-04T12:43:50;3.85;;;1.70;;
583;SDS011;27024;54.068;12.116;2023-04-04T12:46:17;3.60;;;1.40;;
583;SDS011;27024;54.068;12.116;2023-04-04T12:48:51;6.47;;;1.33;;
583;SDS011;27024;54.068;12.116;2023-04-04T12:51:18;4.35;;;1.77;;
583;SDS011;27024;54.068;12.116;2023-04-04T12:53:51;4.03;;;1.48;;
583;SDS011;27024;54.068;12.116;2023-04-04T12:56:18;3.65;;;1.50;;
583;SDS011;27024;54.068;12.116;2023-04-04T12:58:46;4.13;;;1.33;;
583;SDS011;27024;54.068;12.116;2023-04-04T13:01:15;4.85;;;1.40;;
583;SDS011;27024;54.068;12.116;2023-04-04T13:03:42;3.80;;;1.75;;
583;SDS011;27024;54.068;12.116;2023-04-04T13:06:14;4.65;;;1.73;;
583;SDS011;27024;54.068;12.116;2023-04-04T13:08:51;2.90;;;1.20;;
583;SDS011;27024;54.068;12.116;2023-04-04T13:11:19;3.80;;;1.50;;
583;SDS011;27024;54.068;12.116;2023-04-04T13:13:46;4.57;;;1.42;;
583;SDS011;27024;54.068;12.116;2023-04-04T13:16:32;4.53;;;1.40;;
583;SDS011;27024;54.068;12.116;2023-04-04T13:19:03;4.30;;;1.55;;
583;SDS011;27024;54.068;12.116;2023-04-04T13:21:30;3.88;;;1.88;;
583;SDS011;27024;54.068;12.116;2023-04-04T13:23:57;4.15;;;1.40;;
583;SDS011;27024;54.068;12.116;2023-04-04T13:26:24;3.88;;;1.38;;
583;SDS011;27024;54.068;12.116;2023-04-04T13:28:51;3.45;;;1.77;;
583;SDS011;27024;54.068;12.116;2023-04-04T13:31:18;6.38;;;1.77;;
583;SDS011;27024;54.068;12.116;2023-04-04T13:33:45;4.65;;;2.17;;
583;SDS011;27024;54.068;12.116;2023-04-04T13:36:12;4.38;;;1.63;;
583;SDS011;27024;54.068;12.116;2023-04-04T13:38:39;3.63;;;1.00;;
583;SDS011;27024;54.068;12.116;2023-04-04T13:41:06;4.00;;;1.48;;
583;SDS011;27024;54.068;12.116;2023-04-04T13:43:33;4.60;;;1.35;;
583;SDS011;27024;54.068;12.116;2023-04-04T13:46:00;3.78;;;1.23;;
583;SDS011;27024;54.068;12.116;2023-04-04T13:48:27;5.13;;;1.30;;
583;SDS011;27024;54.068;12.116;2023-04-04T13:50:54;3.28;;;1.17;;
583;SDS011;27024;54.068;12.116;2023-04-04T13:53:21;3.85;;;0.95;;
583;SDS011;27024;54.068;12.116;2023-04-04T13:55:48;6.13;;;1.75;;
583;SDS011;27024;54.068;12.116;2023-04-04T13:58:18;3.53;;;1.20;;
583;SDS011;27024;54.068;12.116;2023-04-04T14:00:46;3.85;;;1.17;;
583;SDS011;27024;54.068;12.116;2023-04-04T14:03:14;3.92;;;1.10;;
583;SDS011;27024;54.068;12.116;2023-04-04T14:05:42;4.22;;;1.33;;
583;SDS011;27024;54.068;12.116;2023-04-04T14:08:09;3.63;;;1.73;;
583;SDS011;27024;54.068;12.116;2023-04-04T14:10:36;3.10;;;1.17;;
583;SDS011;27024;54.068;12.116;2023-04-04T14:13:03;4.28;;;1.42;;
583;SDS011;27024;54.068;12.116;2023-04-04T14:15:30;4.82;;;1.20;;
583;SDS011;27024;54.068;12.116;2023-04-04T14:17:56;2.83;;;1.50;;
583;SDS011;27024;54.068;12.116;2023-04-04T14:20:23;5.43;;;1.75;;
583;SDS011;27024;54.068;12.116;2023-04-04T14:22:51;5.28;;;1.88;;
583;SDS011;27024;54.068;12.116;2023-04-04T14:25:18;3.47;;;1.92;;
583;SDS011;27024;54.068;12.116;2023-04-04T14:27:46;4.05;;;1.88;;
583;SDS011;27024;54.068;12.116;2023-04-04T14:30:14;4.50;;;2.08;;
583;SDS011;27024;54.068;12.116;2023-04-04T14:32:42;5.45;;;2.10;;
583;SDS011;27024;54.068;12.116;2023-04-04T14:35:09;5.15;;;2.25;;
583;SDS011;27024;54.068;12.116;2023-04-04T14:37:36;6.45;;;2.03;;
583;SDS011;27024;54.068;12.116;2023-04-04T14:40:04;4.38;;;1.83;;
583;SDS011;27024;54.068;12.116;2023-04-04T14:42:31;3.88;;;1.10;;
583;SDS011;27024;54.068;12.116;2023-04-04T14:44:58;4.88;;;1.70;;
583;SDS011;27024;54.068;12.116;2023-04-04T14:47:27;3.70;;;1.60;;
583;SDS011;27024;54.068;12.116;2023-04-04T14:49:54;4.97;;;2.08;;
583;SDS011;27024;54.068;12.116;2023-04-04T14:52:21;4.25;;;1.65;;
583;SDS011;27024;54.068;12.116;2023-04-04T14:54:48;4.35;;;1.70;;
583;SDS011;27024;54.068;12.116;2023-04-04T14:57:15;3.45;;;1.27;;
583;SDS011;27024;54.068;12.116;2023-04-04T14:59:43;3.75;;;1.40;;
583;SDS011;27024;54.068;12.116;2023-04-04T15:02:09;3.30;;;1.75;;
583;SDS011;27024;54.068;12.116;2023-04-04T15:04:36;4.00;;;1.40;;
583;SDS011;27024;54.068;12.116;2023-04-04T15:07:03;5.47;;;1.60;;
583;SDS011;27024;54.068;12.116;2023-04-04T15:09:30;5.53;;;1.50;;
583;SDS011;27024;54.068;12.116;2023-04-04T15:11:57;4.28;;;1.45;;
583;SDS011;27024;54.068;12.116;2023-04-04T15:14:24;5.10;;;1.33;;
583;SDS011;27024;54.068;12.116;2023-04-04T15:16:51;4.03;;;1.33;;
583;SDS011;27024;54.068;12.116;2023-04-04T15:19:19;5.13;;;1.65;;
583;SDS011;27024;54.068;12.116;2023-04-04T15:21:46;2.17;;;1.02;;
583;SDS011;27024;54.068;12.116;2023-04-04T15:24:14;5.18;;;1.95;;
583;SDS011;27024;54.068;12.116;2023-04-04T15:26:41;5.50;;;1.50;;
583;SDS011;27024;54.068;12.116;2023-04-04T15:29:08;5.75;;;1.70;;
583;SDS011;27024;54.068;12.116;2023-04-04T15:31:35;7.22;;;2.03;;
583;SDS011;27024;54.068;12.116;2023-04-04T15:34:02;4.93;;;1.63;;
583;SDS011;27024;54.068;12.116;2023-04-04T15:36:29;3.50;;;1.67;;
583;SDS011;27024;54.068;12.116;2023-04-04T15:38:56;4.53;;;1.40;;